sensor_id;sensor_type;location;lat;lon;timestamp;P1;durP1;ratioP1;P2;durP2;ratioP2
27163;SDS011;14685;50.618;7.024;2022-12-29T00:00:03;0.47;;;0.47;;
27163;SDS011;14685;50.618;7.024;2022-12-29T00:02:32;0.50;;;0.50;;
27163;SDS011;14685;50.618;7.024;2022-12-29T00:04:59;1.13;;;0.60;;
27163;SDS011;14685;50.618;7.024;2022-12-29T00:07:26;0.50;;;0.50;;
27163;SDS011;14685;50.618;7.024;2022-12-29T00:09:53;0.50;;;0.50;;
27163;SDS011;14685;50.618;7.024;2022-12-29T00:12:20;0.52;;;0.50;;
27163;SDS011;14685;50.618;7.024;2022-12-29T00:14:47;0.65;;;0.50;;
27163;SDS011;14685;50.618;7.024;2022-12-29T00:17:33;0.50;;;0.50;;
27163;SDS011;14685;50.618;7.024;2022-12-29T00:19:59;0.60;;;0.50;;
27163;SDS011;14685;50.618;7.024;2022-12-29T00:22:45;1.73;;;0.50;;
27163;SDS011;14685;50.618;7.024;2022-12-29T00:25:30;0.60;;;0.60;;
27163;SDS011;14685;50.618;7.024;2022-12-29T00:28:15;0.40;;;0.40;;
27163;SDS011;14685;50.618;7.024;2022-12-29T00:31:01;0.50;;;0.50;;
27163;SDS011;14685;50.618;7.024;2022-12-29T00:33:46;0.35;;;0.35;;
27163;SDS011;14685;50.618;7.024;2022-12-29T00:36:36;0.50;;;0.50;;
27163;SDS011;14685;50.618;7.024;2022-12-29T00:39:07;0.30;;;0.30;;
27163;SDS011;14685;50.618;7.024;2022-12-29T00:42:04;0.40;;;0.40;;
27163;SDS011;14685;50.618;7.024;2022-12-29T00:44:52;0.57;;;0.57;;
27163;SDS011;14685;50.618;7.024;2022-12-29T00:47:18;0.50;;;0.50;;
27163;SDS011;14685;50.618;7.024;2022-12-29T00:49:46;0.82;;;0.60;;
27163;SDS011;14685;50.618;7.024;2022-12-29T00:52:13;0.40;;;0.40;;
27163;SDS011;14685;50.618;7.024;2022-12-29T00:54:40;1.08;;;0.60;;
27163;SDS011;14685;50.618;7.024;2022-12-29T00:57:11;0.43;;;0.43;;
27163;SDS011;14685;50.618;7.024;2022-12-29T00:59:38;0.50;;;0.50;;
27163;SDS011;14685;50.618;7.024;2022-12-29T01:02:07;0.60;;;0.60;;
27163;SDS011;14685;50.618;7.024;2022-12-29T01:04:35;0.40;;;0.40;;
27163;SDS011;14685;50.618;7.024;2022-12-29T01:07:02;0.40;;;0.40;;
27163;SDS011;14685;50.618;7.024;2022-12-29T01:09:29;0.45;;;0.43;;
27163;SDS011;14685;50.618;7.024;2022-12-29T01:12:16;2.20;;;0.70;;
27163;SDS011;14685;50.618;7.024;2022-12-29T01:15:03;0.47;;;0.47;;
27163;SDS011;14685;50.618;7.024;2022-12-29T01:17:32;0.50;;;0.50;;
27163;SDS011;14685;50.618;7.024;2022-12-29T01:19:59;0.40;;;0.40;;
27163;SDS011;14685;50.618;7.024;2022-12-29T01:22:27;0.68;;;0.50;;
27163;SDS011;14685;50.618;7.024;2022-12-29T01:24:54;0.50;;;0.50;;
27163;SDS011;14685;50.618;7.024;2022-12-29T01:27:22;0.43;;;0.40;;
27163;SDS011;14685;50.618;7.024;2022-12-29T01:29:49;0.60;;;0.60;;
27163;SDS011;14685;50.618;7.024;2022-12-29T01:32:16;1.60;;;0.60;;
27163;SDS011;14685;50.618;7.024;2022-12-29T01:34:43;1.13;;;1.02;;
27163;SDS011;14685;50.618;7.024;2022-12-29T01:37:10;0.50;;;0.50;;
27163;SDS011;14685;50.618;7.024;2022-12-29T01:39:37;0.77;;;0.50;;
27163;SDS011;14685;50.618;7.024;2022-12-29T01:42:04;2.42;;;0.80;;
27163;SDS011;14685;50.618;7.024;2022-12-29T01:44:52;0.82;;;0.60;;
27163;SDS011;14685;50.618;7.024;2022-12-29T01:47:26;0.60;;;0.60;;
27163;SDS011;14685;50.618;7.024;2022-12-29T01:49:58;1.38;;;0.70;;
27163;SDS011;14685;50.618;7.024;2022-12-29T01:52:29;0.82;;;0.70;;
27163;SDS011;14685;50.618;7.024;2022-12-29T01:55:00;0.77;;;0.60;;
27163;SDS011;14685;50.618;7.024;2022-12-29T01:57:31;2.30;;;0.80;;
27163;SDS011;14685;50.618;7.024;2022-12-29T02:00:08;1.08;;;0.90;;
27163;SDS011;14685;50.618;7.024;2022-12-29T02:02:37;0.70;;;0.70;;
27163;SDS011;14685;50.618;7.024;2022-12-29T02:05:07;0.95;;;0.60;;
27163;SDS011;14685;50.618;7.024;2022-12-29T02:07:39;1.85;;;0.70;;
27163;SDS011;14685;50.618;7.024;2022-12-29T02:10:07;1.35;;;1.13;;
27163;SDS011;14685;50.618;7.024;2022-12-29T02:12:33;2.55;;;1.00;;
27163;SDS011;14685;50.618;7.024;2022-12-29T02:15:00;0.50;;;0.50;;
27163;SDS011;14685;50.618;7.024;2022-12-29T02:17:33;1.00;;;0.70;;
27163;SDS011;14685;50.618;7.024;2022-12-29T02:20:11;1.05;;;0.77;;
27163;SDS011;14685;50.618;7.024;2022-12-29T02:23:13;0.77;;;0.77;;
27163;SDS011;14685;50.618;7.024;2022-12-29T02:34:47;0.80;;;0.80;;
27163;SDS011;14685;50.618;7.024;2022-12-29T02:51:39;1.10;;;1.00;;
27163;SDS011;14685;50.618;7.024;2022-12-29T02:54:19;1.58;;;1.00;;
27163;SDS011;14685;50.618;7.024;2022-12-29T02:59:50;1.52;;;0.65;;
27163;SDS011;14685;50.618;7.024;2022-12-29T03:02:27;0.88;;;0.82;;
27163;SDS011;14685;50.618;7.024;2022-12-29T03:05:12;2.65;;;1.15;;
27163;SDS011;14685;50.618;7.024;2022-12-29T03:19:04;1.48;;;1.00;;
27163;SDS011;14685;50.618;7.024;2022-12-29T03:21:39;1.60;;;1.00;;
27163;SDS011;14685;50.618;7.024;2022-12-29T03:24:30;1.38;;;0.90;;
27163;SDS011;14685;50.618;7.024;2022-12-29T03:27:01;1.00;;;0.80;;
27163;SDS011;14685;50.618;7.024;2022-12-29T03:29:33;1.45;;;0.85;;
27163;SDS011;14685;50.618;7.024;2022-12-29T03:34:33;0.75;;;0.75;;
27163;SDS011;14685;50.618;7.024;2022-12-29T03:37:05;0.77;;;0.73;;
27163;SDS011;14685;50.618;7.024;2022-12-29T03:39:36;0.75;;;0.75;;
27163;SDS011;14685;50.618;7.024;2022-12-29T03:42:06;0.65;;;0.65;;
27163;SDS011;14685;50.618;7.024;2022-12-29T03:44:39;0.82;;;0.70;;
27163;SDS011;14685;50.618;7.024;2022-12-29T03:47:07;1.25;;;0.90;;
27163;SDS011;14685;50.618;7.024;2022-12-29T03:49:37;0.68;;;0.68;;
27163;SDS011;14685;50.618;7.024;2022-12-29T03:52:04;0.70;;;0.70;;
27163;SDS011;14685;50.618;7.024;2022-12-29T03:54:32;0.57;;;0.57;;
27163;SDS011;14685;50.618;7.024;2022-12-29T03:57:01;0.60;;;0.60;;
27163;SDS011;14685;50.618;7.024;2022-12-29T03:59:30;0.95;;;0.70;;
27163;SDS011;14685;50.618;7.024;2022-12-29T04:01:57;1.60;;;0.70;;
27163;SDS011;14685;50.618;7.024;2022-12-29T04:04:25;1.60;;;0.70;;
27163;SDS011;14685;50.618;7.024;2022-12-29T04:06:52;0.50;;;0.50;;
27163;SDS011;14685;50.618;7.024;2022-12-29T04:09:19;0.68;;;0.60;;
27163;SDS011;14685;50.618;7.024;2022-12-29T04:11:46;0.95;;;0.77;;
27163;SDS011;14685;50.618;7.024;2022-12-29T04:14:13;1.30;;;0.70;;
27163;SDS011;14685;50.618;7.024;2022-12-29T04:16:40;0.70;;;0.70;;
27163;SDS011;14685;50.618;7.024;2022-12-29T04:19:06;1.75;;;0.70;;
27163;SDS011;14685;50.618;7.024;2022-12-29T04:21:33;0.90;;;0.60;;
27163;SDS011;14685;50.618;7.024;2022-12-29T04:24:01;1.85;;;0.77;;
27163;SDS011;14685;50.618;7.024;2022-12-29T04:26:32;0.50;;;0.50;;
27163;SDS011;14685;50.618;7.024;2022-12-29T04:28:59;2.45;;;0.82;;
27163;SDS011;14685;50.618;7.024;2022-12-29T04:31:26;0.63;;;0.63;;
27163;SDS011;14685;50.618;7.024;2022-12-29T04:33:55;0.88;;;0.77;;
27163;SDS011;14685;50.618;7.024;2022-12-29T04:36:23;1.52;;;0.70;;
27163;SDS011;14685;50.618;7.024;2022-12-29T04:38:55;1.08;;;0.60;;
27163;SDS011;14685;50.618;7.024;2022-12-29T04:41:22;0.55;;;0.55;;
27163;SDS011;14685;50.618;7.024;2022-12-29T04:43:49;1.85;;;0.70;;
27163;SDS011;14685;50.618;7.024;2022-12-29T04:46:16;0.60;;;0.60;;
27163;SDS011;14685;50.618;7.024;2022-12-29T04:48:43;1.10;;;0.70;;
27163;SDS011;14685;50.618;7.024;2022-12-29T04:51:10;0.68;;;0.55;;
27163;SDS011;14685;50.618;7.024;2022-12-29T04:53:37;0.68;;;0.68;;
27163;SDS011;14685;50.618;7.024;2022-12-29T04:56:04;1.40;;;0.63;;
27163;SDS011;14685;50.618;7.024;2022-12-29T04:58:31;1.15;;;0.70;;
27163;SDS011;14685;50.618;7.024;2022-12-29T05:00:59;1.70;;;0.75;;
27163;SDS011;14685;50.618;7.024;2022-12-29T05:03:26;3.03;;;0.70;;
27163;SDS011;14685;50.618;7.024;2022-12-29T05:05:53;1.30;;;0.70;;
27163;SDS011;14685;50.618;7.024;2022-12-29T05:08:21;0.60;;;0.60;;
27163;SDS011;14685;50.618;7.024;2022-12-29T05:10:53;1.08;;;0.60;;
27163;SDS011;14685;50.618;7.024;2022-12-29T05:13:20;0.75;;;0.70;;
27163;SDS011;14685;50.618;7.024;2022-12-29T05:15:49;3.80;;;1.00;;
27163;SDS011;14685;50.618;7.024;2022-12-29T05:18:18;0.80;;;0.77;;
27163;SDS011;14685;50.618;7.024;2022-12-29T05:20:46;1.25;;;0.80;;
27163;SDS011;14685;50.618;7.024;2022-12-29T05:23:13;0.70;;;0.70;;
27163;SDS011;14685;50.618;7.024;2022-12-29T05:25:40;0.95;;;0.73;;
27163;SDS011;14685;50.618;7.024;2022-12-29T05:28:07;1.40;;;0.85;;
27163;SDS011;14685;50.618;7.024;2022-12-29T05:30:36;0.75;;;0.75;;
27163;SDS011;14685;50.618;7.024;2022-12-29T05:33:02;2.17;;;0.82;;
27163;SDS011;14685;50.618;7.024;2022-12-29T05:35:29;3.55;;;1.02;;
27163;SDS011;14685;50.618;7.024;2022-12-29T05:37:58;2.05;;;1.02;;
27163;SDS011;14685;50.618;7.024;2022-12-29T05:40:25;2.67;;;1.15;;
27163;SDS011;14685;50.618;7.024;2022-12-29T05:42:52;3.08;;;1.00;;
27163;SDS011;14685;50.618;7.024;2022-12-29T05:45:18;2.85;;;1.00;;
27163;SDS011;14685;50.618;7.024;2022-12-29T05:47:45;1.77;;;1.20;;
27163;SDS011;14685;50.618;7.024;2022-12-29T05:50:12;1.17;;;0.95;;
27163;SDS011;14685;50.618;7.024;2022-12-29T05:52:40;2.05;;;1.10;;
27163;SDS011;14685;50.618;7.024;2022-12-29T05:55:07;1.85;;;1.10;;
27163;SDS011;14685;50.618;7.024;2022-12-29T05:57:34;2.45;;;1.13;;
27163;SDS011;14685;50.618;7.024;2022-12-29T06:00:02;1.65;;;1.00;;
27163;SDS011;14685;50.618;7.024;2022-12-29T06:02:29;2.33;;;1.38;;
27163;SDS011;14685;50.618;7.024;2022-12-29T06:04:58;0.88;;;0.88;;
27163;SDS011;14685;50.618;7.024;2022-12-29T06:07:26;1.48;;;1.10;;
27163;SDS011;14685;50.618;7.024;2022-12-29T06:09:53;2.22;;;0.90;;
27163;SDS011;14685;50.618;7.024;2022-12-29T06:12:21;1.63;;;1.20;;
27163;SDS011;14685;50.618;7.024;2022-12-29T06:14:48;1.23;;;0.73;;
27163;SDS011;14685;50.618;7.024;2022-12-29T06:17:15;1.20;;;1.10;;
27163;SDS011;14685;50.618;7.024;2022-12-29T06:19:45;3.20;;;1.00;;
27163;SDS011;14685;50.618;7.024;2022-12-29T06:22:12;0.85;;;0.85;;
27163;SDS011;14685;50.618;7.024;2022-12-29T06:24:39;0.95;;;0.80;;
27163;SDS011;14685;50.618;7.024;2022-12-29T06:27:07;2.47;;;1.77;;
27163;SDS011;14685;50.618;7.024;2022-12-29T06:29:34;5.93;;;3.30;;
27163;SDS011;14685;50.618;7.024;2022-12-29T06:32:03;5.95;;;3.13;;
27163;SDS011;14685;50.618;7.024;2022-12-29T06:34:30;2.33;;;1.63;;
27163;SDS011;14685;50.618;7.024;2022-12-29T06:36:58;1.02;;;0.93;;
27163;SDS011;14685;50.618;7.024;2022-12-29T06:39:25;1.35;;;0.93;;
27163;SDS011;14685;50.618;7.024;2022-12-29T06:41:52;5.63;;;2.30;;
27163;SDS011;14685;50.618;7.024;2022-12-29T06:44:21;3.15;;;1.65;;
27163;SDS011;14685;50.618;7.024;2022-12-29T06:46:48;2.65;;;1.70;;
27163;SDS011;14685;50.618;7.024;2022-12-29T06:49:17;2.58;;;1.23;;
27163;SDS011;14685;50.618;7.024;2022-12-29T06:51:44;1.58;;;0.77;;
27163;SDS011;14685;50.618;7.024;2022-12-29T06:54:10;1.27;;;0.80;;
27163;SDS011;14685;50.618;7.024;2022-12-29T06:56:37;1.27;;;0.80;;
27163;SDS011;14685;50.618;7.024;2022-12-29T06:59:04;0.70;;;0.70;;
27163;SDS011;14685;50.618;7.024;2022-12-29T07:01:32;1.65;;;0.60;;
27163;SDS011;14685;50.618;7.024;2022-12-29T07:03:59;1.10;;;0.60;;
27163;SDS011;14685;50.618;7.024;2022-12-29T07:06:26;0.70;;;0.70;;
27163;SDS011;14685;50.618;7.024;2022-12-29T07:08:53;0.73;;;0.55;;
27163;SDS011;14685;50.618;7.024;2022-12-29T07:11:21;0.50;;;0.50;;
27163;SDS011;14685;50.618;7.024;2022-12-29T07:13:50;0.43;;;0.40;;
27163;SDS011;14685;50.618;7.024;2022-12-29T07:16:19;0.50;;;0.50;;
27163;SDS011;14685;50.618;7.024;2022-12-29T07:18:46;1.58;;;0.40;;
27163;SDS011;14685;50.618;7.024;2022-12-29T07:21:13;2.70;;;0.70;;
27163;SDS011;14685;50.618;7.024;2022-12-29T07:23:42;0.43;;;0.40;;
27163;SDS011;14685;50.618;7.024;2022-12-29T07:26:10;1.95;;;1.08;;
27163;SDS011;14685;50.618;7.024;2022-12-29T07:28:39;1.85;;;0.60;;
27163;SDS011;14685;50.618;7.024;2022-12-29T07:31:17;2.10;;;0.50;;
27163;SDS011;14685;50.618;7.024;2022-12-29T07:33:45;0.73;;;0.50;;
27163;SDS011;14685;50.618;7.024;2022-12-29T07:36:14;4.88;;;0.95;;
27163;SDS011;14685;50.618;7.024;2022-12-29T07:38:41;2.15;;;0.60;;
27163;SDS011;14685;50.618;7.024;2022-12-29T07:41:09;0.60;;;0.60;;
27163;SDS011;14685;50.618;7.024;2022-12-29T07:43:37;3.80;;;0.85;;
27163;SDS011;14685;50.618;7.024;2022-12-29T07:46:04;3.30;;;0.55;;
27163;SDS011;14685;50.618;7.024;2022-12-29T07:48:31;1.20;;;0.57;;
27163;SDS011;14685;50.618;7.024;2022-12-29T07:51:02;1.05;;;0.80;;
27163;SDS011;14685;50.618;7.024;2022-12-29T07:53:28;1.33;;;0.60;;
27163;SDS011;14685;50.618;7.024;2022-12-29T07:55:55;1.83;;;0.70;;
27163;SDS011;14685;50.618;7.024;2022-12-29T07:58:23;1.40;;;0.60;;
27163;SDS011;14685;50.618;7.024;2022-12-29T08:00:56;2.45;;;0.60;;
27163;SDS011;14685;50.618;7.024;2022-12-29T08:03:23;0.73;;;0.60;;
27163;SDS011;14685;50.618;7.024;2022-12-29T08:05:52;2.33;;;0.73;;
27163;SDS011;14685;50.618;7.024;2022-12-29T08:08:19;0.98;;;0.65;;
27163;SDS011;14685;50.618;7.024;2022-12-29T08:10:46;1.52;;;0.70;;
27163;SDS011;14685;50.618;7.024;2022-12-29T08:13:13;3.40;;;0.85;;
27163;SDS011;14685;50.618;7.024;2022-12-29T08:15:40;2.13;;;0.80;;
27163;SDS011;14685;50.618;7.024;2022-12-29T08:18:07;1.92;;;0.63;;
27163;SDS011;14685;50.618;7.024;2022-12-29T08:20:34;3.00;;;0.80;;
27163;SDS011;14685;50.618;7.024;2022-12-29T08:23:02;2.72;;;0.70;;
27163;SDS011;14685;50.618;7.024;2022-12-29T08:25:29;3.47;;;0.70;;
27163;SDS011;14685;50.618;7.024;2022-12-29T08:27:56;3.00;;;0.70;;
27163;SDS011;14685;50.618;7.024;2022-12-29T08:30:23;1.20;;;0.88;;
27163;SDS011;14685;50.618;7.024;2022-12-29T08:32:51;1.50;;;0.60;;
27163;SDS011;14685;50.618;7.024;2022-12-29T08:35:19;5.70;;;0.98;;
27163;SDS011;14685;50.618;7.024;2022-12-29T08:37:46;3.35;;;0.75;;
27163;SDS011;14685;50.618;7.024;2022-12-29T08:40:13;2.63;;;0.73;;
27163;SDS011;14685;50.618;7.024;2022-12-29T08:42:41;3.55;;;1.00;;
27163;SDS011;14685;50.618;7.024;2022-12-29T08:45:09;4.22;;;0.82;;
27163;SDS011;14685;50.618;7.024;2022-12-29T08:47:35;1.70;;;0.75;;
27163;SDS011;14685;50.618;7.024;2022-12-29T08:50:02;4.63;;;1.00;;
27163;SDS011;14685;50.618;7.024;2022-12-29T08:52:29;3.67;;;1.10;;
27163;SDS011;14685;50.618;7.024;2022-12-29T08:54:56;4.20;;;1.20;;
27163;SDS011;14685;50.618;7.024;2022-12-29T08:57:24;3.00;;;1.27;;
27163;SDS011;14685;50.618;7.024;2022-12-29T08:59:51;4.35;;;1.08;;
27163;SDS011;14685;50.618;7.024;2022-12-29T09:02:17;3.97;;;1.10;;
27163;SDS011;14685;50.618;7.024;2022-12-29T09:04:50;4.90;;;0.80;;
27163;SDS011;14685;50.618;7.024;2022-12-29T09:07:17;4.50;;;1.10;;
27163;SDS011;14685;50.618;7.024;2022-12-29T09:09:43;2.78;;;0.85;;
27163;SDS011;14685;50.618;7.024;2022-12-29T09:12:10;3.05;;;0.80;;
27163;SDS011;14685;50.618;7.024;2022-12-29T09:14:37;3.55;;;0.90;;
27163;SDS011;14685;50.618;7.024;2022-12-29T09:17:04;5.50;;;1.00;;
27163;SDS011;14685;50.618;7.024;2022-12-29T09:19:50;3.97;;;1.60;;
27163;SDS011;14685;50.618;7.024;2022-12-29T09:22:17;3.35;;;1.00;;
27163;SDS011;14685;50.618;7.024;2022-12-29T09:24:44;2.45;;;1.23;;
27163;SDS011;14685;50.618;7.024;2022-12-29T09:27:11;3.60;;;1.42;;
27163;SDS011;14685;50.618;7.024;2022-12-29T09:29:38;4.85;;;1.05;;
27163;SDS011;14685;50.618;7.024;2022-12-29T09:32:04;4.10;;;1.20;;
27163;SDS011;14685;50.618;7.024;2022-12-29T09:34:33;3.17;;;1.02;;
27163;SDS011;14685;50.618;7.024;2022-12-29T09:37:00;2.38;;;1.00;;
27163;SDS011;14685;50.618;7.024;2022-12-29T09:39:27;2.60;;;0.85;;
27163;SDS011;14685;50.618;7.024;2022-12-29T09:47:44;5.57;;;1.05;;
27163;SDS011;14685;50.618;7.024;2022-12-29T09:50:17;3.95;;;1.23;;
27163;SDS011;14685;50.618;7.024;2022-12-29T09:55:50;4.22;;;1.05;;
27163;SDS011;14685;50.618;7.024;2022-12-29T09:58:35;2.53;;;1.00;;
27163;SDS011;14685;50.618;7.024;2022-12-29T10:01:16;5.97;;;1.50;;
27163;SDS011;14685;50.618;7.024;2022-12-29T10:03:54;6.47;;;1.38;;
27163;SDS011;14685;50.618;7.024;2022-12-29T10:09:02;5.05;;;1.35;;
27163;SDS011;14685;50.618;7.024;2022-12-29T10:17:31;8.32;;;1.58;;
27163;SDS011;14685;50.618;7.024;2022-12-29T10:25:55;3.85;;;1.05;;
27163;SDS011;14685;50.618;7.024;2022-12-29T10:28:39;5.18;;;1.27;;
27163;SDS011;14685;50.618;7.024;2022-12-29T10:31:19;4.85;;;1.30;;
27163;SDS011;14685;50.618;7.024;2022-12-29T10:33:59;5.40;;;1.33;;
27163;SDS011;14685;50.618;7.024;2022-12-29T10:36:38;4.03;;;1.23;;
27163;SDS011;14685;50.618;7.024;2022-12-29T10:42:01;4.60;;;1.20;;
27163;SDS011;14685;50.618;7.024;2022-12-29T10:44:41;2.83;;;1.15;;
27163;SDS011;14685;50.618;7.024;2022-12-29T10:47:15;9.98;;;1.50;;
27163;SDS011;14685;50.618;7.024;2022-12-29T10:49:45;4.40;;;1.20;;
27163;SDS011;14685;50.618;7.024;2022-12-29T10:52:14;3.50;;;1.10;;
27163;SDS011;14685;50.618;7.024;2022-12-29T10:59:51;7.57;;;1.45;;
27163;SDS011;14685;50.618;7.024;2022-12-29T11:07:52;9.88;;;5.93;;
27163;SDS011;14685;50.618;7.024;2022-12-29T11:10:38;6.10;;;1.58;;
27163;SDS011;14685;50.618;7.024;2022-12-29T11:13:15;4.18;;;1.15;;
27163;SDS011;14685;50.618;7.024;2022-12-29T11:15:46;9.65;;;1.60;;
27163;SDS011;14685;50.618;7.024;2022-12-29T11:20:48;5.22;;;1.10;;
27163;SDS011;14685;50.618;7.024;2022-12-29T11:23:28;7.13;;;1.20;;
27163;SDS011;14685;50.618;7.024;2022-12-29T11:26:08;4.05;;;1.20;;
27163;SDS011;14685;50.618;7.024;2022-12-29T11:28:43;10.50;;;1.48;;
27163;SDS011;14685;50.618;7.024;2022-12-29T11:31:15;6.47;;;1.77;;
27163;SDS011;14685;50.618;7.024;2022-12-29T11:33:43;3.13;;;1.00;;
27163;SDS011;14685;50.618;7.024;2022-12-29T11:36:11;5.82;;;1.30;;
27163;SDS011;14685;50.618;7.024;2022-12-29T11:38:52;5.82;;;1.67;;
27163;SDS011;14685;50.618;7.024;2022-12-29T11:41:27;4.82;;;1.20;;
27163;SDS011;14685;50.618;7.024;2022-12-29T11:43:57;8.60;;;1.38;;
27163;SDS011;14685;50.618;7.024;2022-12-29T11:46:32;3.75;;;1.40;;
27163;SDS011;14685;50.618;7.024;2022-12-29T11:49:02;9.93;;;1.90;;
27163;SDS011;14685;50.618;7.024;2022-12-29T11:51:34;6.35;;;1.40;;
27163;SDS011;14685;50.618;7.024;2022-12-29T11:54:16;8.23;;;2.03;;
27163;SDS011;14685;50.618;7.024;2022-12-29T11:56:47;6.72;;;1.65;;
27163;SDS011;14685;50.618;7.024;2022-12-29T12:01:58;5.65;;;1.38;;
27163;SDS011;14685;50.618;7.024;2022-12-29T12:04:30;9.05;;;1.50;;
27163;SDS011;14685;50.618;7.024;2022-12-29T12:09:46;7.68;;;1.60;;
27163;SDS011;14685;50.618;7.024;2022-12-29T12:12:28;7.43;;;1.70;;
27163;SDS011;14685;50.618;7.024;2022-12-29T12:14:59;5.30;;;1.60;;
27163;SDS011;14685;50.618;7.024;2022-12-29T12:17:34;7.20;;;1.77;;
27163;SDS011;14685;50.618;7.024;2022-12-29T12:20:16;9.82;;;3.60;;
27163;SDS011;14685;50.618;7.024;2022-12-29T12:28:28;7.28;;;2.20;;
27163;SDS011;14685;50.618;7.024;2022-12-29T12:31:05;6.13;;;1.63;;
27163;SDS011;14685;50.618;7.024;2022-12-29T12:33:41;7.60;;;1.63;;
27163;SDS011;14685;50.618;7.024;2022-12-29T12:36:26;5.60;;;1.65;;
27163;SDS011;14685;50.618;7.024;2022-12-29T12:42:14;7.97;;;2.30;;
27163;SDS011;14685;50.618;7.024;2022-12-29T12:52:54;6.38;;;1.75;;
27163;SDS011;14685;50.618;7.024;2022-12-29T12:56:43;6.85;;;2.05;;
27163;SDS011;14685;50.618;7.024;2022-12-29T13:15:08;6.57;;;1.48;;
27163;SDS011;14685;50.618;7.024;2022-12-29T13:17:45;8.95;;;1.77;;
27163;SDS011;14685;50.618;7.024;2022-12-29T13:20:37;9.20;;;2.70;;
27163;SDS011;14685;50.618;7.024;2022-12-29T13:28:47;9.55;;;2.30;;
27163;SDS011;14685;50.618;7.024;2022-12-29T13:31:31;6.57;;;2.00;;
27163;SDS011;14685;50.618;7.024;2022-12-29T13:34:42;7.55;;;1.75;;
27163;SDS011;14685;50.618;7.024;2022-12-29T13:37:28;10.45;;;2.00;;
27163;SDS011;14685;50.618;7.024;2022-12-29T13:40:10;7.03;;;1.75;;
27163;SDS011;14685;50.618;7.024;2022-12-29T13:42:44;6.88;;;1.75;;
27163;SDS011;14685;50.618;7.024;2022-12-29T13:45:16;6.95;;;1.83;;
27163;SDS011;14685;50.618;7.024;2022-12-29T13:48:05;9.40;;;1.63;;
27163;SDS011;14685;50.618;7.024;2022-12-29T13:50:48;6.82;;;2.05;;
27163;SDS011;14685;50.618;7.024;2022-12-29T13:55:55;10.80;;;2.10;;
27163;SDS011;14685;50.618;7.024;2022-12-29T14:01:08;6.43;;;1.88;;
27163;SDS011;14685;50.618;7.024;2022-12-29T14:08:54;6.03;;;1.58;;
27163;SDS011;14685;50.618;7.024;2022-12-29T14:11:40;10.18;;;2.10;;
27163;SDS011;14685;50.618;7.024;2022-12-29T14:14:18;11.18;;;2.72;;
27163;SDS011;14685;50.618;7.024;2022-12-29T14:16:51;7.10;;;1.63;;
27163;SDS011;14685;50.618;7.024;2022-12-29T14:19:28;7.38;;;1.67;;
27163;SDS011;14685;50.618;7.024;2022-12-29T14:22:01;5.32;;;1.50;;
27163;SDS011;14685;50.618;7.024;2022-12-29T14:27:24;8.80;;;1.67;;
27163;SDS011;14685;50.618;7.024;2022-12-29T14:29:49;7.63;;;1.50;;
27163;SDS011;14685;50.618;7.024;2022-12-29T14:34:58;4.25;;;1.30;;
27163;SDS011;14685;50.618;7.024;2022-12-29T14:37:29;6.78;;;1.67;;
27163;SDS011;14685;50.618;7.024;2022-12-29T14:40:23;6.90;;;1.63;;
27163;SDS011;14685;50.618;7.024;2022-12-29T14:42:58;5.47;;;1.40;;
27163;SDS011;14685;50.618;7.024;2022-12-29T14:45:30;5.28;;;1.75;;
27163;SDS011;14685;50.618;7.024;2022-12-29T14:51:27;8.25;;;1.52;;
27163;SDS011;14685;50.618;7.024;2022-12-29T14:53:59;9.50;;;1.77;;
27163;SDS011;14685;50.618;7.024;2022-12-29T14:56:28;7.60;;;1.85;;
27163;SDS011;14685;50.618;7.024;2022-12-29T14:59:08;8.77;;;2.45;;
27163;SDS011;14685;50.618;7.024;2022-12-29T15:01:42;8.55;;;2.00;;
27163;SDS011;14685;50.618;7.024;2022-12-29T15:04:17;5.95;;;1.55;;
27163;SDS011;14685;50.618;7.024;2022-12-29T15:06:47;7.72;;;1.77;;
27163;SDS011;14685;50.618;7.024;2022-12-29T15:09:33;7.50;;;1.88;;
27163;SDS011;14685;50.618;7.024;2022-12-29T15:12:11;8.30;;;1.50;;
27163;SDS011;14685;50.618;7.024;2022-12-29T15:14:55;12.75;;;2.47;;
27163;SDS011;14685;50.618;7.024;2022-12-29T15:17:32;7.75;;;2.22;;
27163;SDS011;14685;50.618;7.024;2022-12-29T15:23:30;7.22;;;1.67;;
27163;SDS011;14685;50.618;7.024;2022-12-29T15:25:51;6.15;;;1.70;;
27163;SDS011;14685;50.618;7.024;2022-12-29T15:28:21;7.28;;;1.70;;
27163;SDS011;14685;50.618;7.024;2022-12-29T15:30:50;8.95;;;1.60;;
27163;SDS011;14685;50.618;7.024;2022-12-29T15:33:29;9.43;;;1.70;;
27163;SDS011;14685;50.618;7.024;2022-12-29T15:35:56;2.75;;;1.67;;
27163;SDS011;14685;50.618;7.024;2022-12-29T15:38:29;8.82;;;2.80;;
27163;SDS011;14685;50.618;7.024;2022-12-29T15:41:06;5.85;;;2.80;;
27163;SDS011;14685;50.618;7.024;2022-12-29T15:43:48;5.22;;;1.70;;
27163;SDS011;14685;50.618;7.024;2022-12-29T15:46:17;6.03;;;2.28;;
27163;SDS011;14685;50.618;7.024;2022-12-29T15:48:46;6.50;;;1.85;;
27163;SDS011;14685;50.618;7.024;2022-12-29T15:53:46;11.27;;;2.20;;
27163;SDS011;14685;50.618;7.024;2022-12-29T15:56:15;7.00;;;2.25;;
27163;SDS011;14685;50.618;7.024;2022-12-29T15:58:43;11.10;;;3.78;;
27163;SDS011;14685;50.618;7.024;2022-12-29T16:01:19;6.57;;;2.38;;
27163;SDS011;14685;50.618;7.024;2022-12-29T16:03:54;10.13;;;1.42;;
27163;SDS011;14685;50.618;7.024;2022-12-29T16:06:32;4.10;;;1.30;;
27163;SDS011;14685;50.618;7.024;2022-12-29T16:09:05;6.25;;;1.60;;
27163;SDS011;14685;50.618;7.024;2022-12-29T16:14:28;6.90;;;1.98;;
27163;SDS011;14685;50.618;7.024;2022-12-29T16:17:00;9.70;;;1.83;;
27163;SDS011;14685;50.618;7.024;2022-12-29T16:19:38;9.02;;;1.80;;
27163;SDS011;14685;50.618;7.024;2022-12-29T16:22:10;5.10;;;1.50;;
27163;SDS011;14685;50.618;7.024;2022-12-29T16:24:42;7.10;;;1.60;;
27163;SDS011;14685;50.618;7.024;2022-12-29T16:27:09;7.82;;;1.92;;
27163;SDS011;14685;50.618;7.024;2022-12-29T16:29:43;5.78;;;1.80;;
27163;SDS011;14685;50.618;7.024;2022-12-29T16:32:24;7.43;;;1.70;;
27163;SDS011;14685;50.618;7.024;2022-12-29T16:37:42;9.55;;;3.63;;
27163;SDS011;14685;50.618;7.024;2022-12-29T16:40:29;10.82;;;2.50;;
27163;SDS011;14685;50.618;7.024;2022-12-29T16:42:58;7.50;;;2.10;;
27163;SDS011;14685;50.618;7.024;2022-12-29T16:48:21;7.22;;;1.95;;
27163;SDS011;14685;50.618;7.024;2022-12-29T16:50:50;9.15;;;1.88;;
27163;SDS011;14685;50.618;7.024;2022-12-29T16:53:19;14.18;;;4.80;;
27163;SDS011;14685;50.618;7.024;2022-12-29T16:55:48;13.80;;;3.13;;
27163;SDS011;14685;50.618;7.024;2022-12-29T16:58:17;7.72;;;2.13;;
27163;SDS011;14685;50.618;7.024;2022-12-29T17:00:48;5.07;;;1.65;;
27163;SDS011;14685;50.618;7.024;2022-12-29T17:03:15;6.82;;;1.45;;
27163;SDS011;14685;50.618;7.024;2022-12-29T17:05:42;6.85;;;2.10;;
27163;SDS011;14685;50.618;7.024;2022-12-29T17:08:28;9.88;;;2.55;;
27163;SDS011;14685;50.618;7.024;2022-12-29T17:10:55;6.85;;;2.08;;
27163;SDS011;14685;50.618;7.024;2022-12-29T17:13:41;8.95;;;2.50;;
27163;SDS011;14685;50.618;7.024;2022-12-29T17:16:09;11.95;;;2.83;;
27163;SDS011;14685;50.618;7.024;2022-12-29T17:18:37;8.20;;;2.20;;
27163;SDS011;14685;50.618;7.024;2022-12-29T17:21:04;9.85;;;2.00;;
27163;SDS011;14685;50.618;7.024;2022-12-29T17:23:31;8.30;;;2.10;;
27163;SDS011;14685;50.618;7.024;2022-12-29T17:26:00;13.90;;;2.28;;
27163;SDS011;14685;50.618;7.024;2022-12-29T17:28:28;9.55;;;2.05;;
27163;SDS011;14685;50.618;7.024;2022-12-29T17:30:59;12.85;;;2.15;;
27163;SDS011;14685;50.618;7.024;2022-12-29T17:33:30;11.40;;;2.42;;
27163;SDS011;14685;50.618;7.024;2022-12-29T17:36:01;5.70;;;1.95;;
27163;SDS011;14685;50.618;7.024;2022-12-29T17:38:30;8.57;;;2.03;;
27163;SDS011;14685;50.618;7.024;2022-12-29T17:41:00;9.23;;;2.85;;
27163;SDS011;14685;50.618;7.024;2022-12-29T17:43:27;12.30;;;2.50;;
27163;SDS011;14685;50.618;7.024;2022-12-29T17:46:02;12.75;;;2.50;;
27163;SDS011;14685;50.618;7.024;2022-12-29T17:48:32;8.82;;;2.28;;
27163;SDS011;14685;50.618;7.024;2022-12-29T17:50:59;9.35;;;2.67;;